Time;durP1;ratioP1;P1;durP2;ratioP2;P2;SDS_P1;SDS_P2;PMS_P1;PMS_P2;Temp;Humidity;BMP_temperature;BMP_pressure;BME280_temperature;BME280_humidity;BME280_pressure;Samples;Min_cycle;Max_cycle;Signal;HPM_P1;HPM_P2
2022/06/15 00:01:24;;;;;;;2.47;2.28;;;22.40;59.70;;;;;;4995321;28;20209;-69
2022/06/15 00:03:51;;;;;;;2.78;1.85;;;22.40;59.70;;;;;;4995325;28;20183;-69
2022/06/15 00:06:25;;;;;;;2.08;1.88;;;22.40;59.60;;;;;;4996810;28;20257;-69
2022/06/15 00:08:55;;;;;;;2.20;2.00;;;22.40;59.60;;;;;;4995685;28;20214;-69
2022/06/15 00:11:20;;;;;;;3.42;2.28;;;22.40;59.60;;;;;;4978553;28;20641;-69
2022/06/15 00:13:48;;;;;;;3.28;2.00;;;22.40;59.70;;;;;;4978050;28;20212;-69
2022/06/15 00:16:15;;;;;;;2.35;2.15;;;22.40;59.70;;;;;;4995272;28;20184;-69
2022/06/15 00:18:44;;;;;;;2.40;2.20;;;22.40;59.70;;;;;;4995760;28;20214;-69
2022/06/15 00:21:10;;;;;;;3.10;2.30;;;22.40;59.70;;;;;;4995868;28;20243;-69
2022/06/15 00:23:37;;;;;;;2.40;2.20;;;22.40;59.60;;;;;;4978519;28;20189;-70
2022/06/15 00:26:04;;;;;;;2.00;1.90;;;22.40;59.60;;;;;;4995768;28;20239;-69
2022/06/15 00:28:31;;;;;;;2.40;2.20;;;22.40;59.60;;;;;;4995559;28;20208;-69
2022/06/15 00:30:57;;;;;;;2.20;2.08;;;22.40;59.70;;;;;;4980797;28;20192;-69
2022/06/15 00:33:24;;;;;;;2.63;2.20;;;22.40;59.70;;;;;;5009204;28;20696;-69
2022/06/15 00:36:04;;;;;;;2.22;2.05;;;22.40;59.80;;;;;;4993906;28;20232;-69
2022/06/15 00:38:41;;;;;;;2.38;1.88;;;22.40;59.80;;;;;;4993493;28;20295;-69
2022/06/15 00:41:12;;;;;;;2.05;1.95;;;22.40;59.80;;;;;;4995024;28;20173;-69
2022/06/15 00:43:45;;;;;;;2.08;1.88;;;22.40;60.50;;;;;;4993183;28;20184;-69
2022/06/15 00:46:26;;;;;;;2.03;1.92;;;22.40;59.80;;;;;;5009534;28;20189;-69
2022/06/15 00:49:33;;;;;;;2.35;2.15;;;22.40;59.80;;;;;;4993426;28;20205;-69
2022/06/15 00:52:15;;;;;;;2.53;2.33;;;22.40;59.80;;;;;;4971609;28;20233;-69
2022/06/15 00:54:45;;;;;;;2.53;1.80;;;22.30;59.70;;;;;;4993316;28;20176;-69
2022/06/15 00:57:12;;;;;;;2.08;1.98;;;22.40;59.80;;;;;;4994118;28;20239;-69
2022/06/15 01:00:00;;;;;;;2.08;1.98;;;22.40;59.80;;;;;;4977767;28;20213;-69
2022/06/15 01:02:27;;;;;;;1.92;1.83;;;22.30;59.70;;;;;;4975426;28;20181;-69
2022/06/15 01:05:12;;;;;;;2.28;2.08;;;22.30;59.70;;;;;;4957318;28;20197;-69
2022/06/15 01:07:56;;;;;;;2.30;2.10;;;22.30;59.80;;;;;;4957653;28;20181;-69
2022/06/15 01:10:30;;;;;;;2.42;2.22;;;22.30;59.70;;;;;;4973487;28;20224;-69
2022/06/15 01:13:52;;;;;;;3.47;2.20;;;22.30;59.80;;;;;;4957675;28;20208;-69
2022/06/15 01:16:57;;;;;;;2.03;1.92;;;22.40;59.80;;;;;;4918567;29;20194;-69
2022/06/15 01:19:55;;;;;;;2.10;2.00;;;22.30;59.80;;;;;;4973479;28;20213;-69
2022/06/15 01:22:29;;;;;;;2.90;2.00;;;22.30;59.80;;;;;;4973735;28;20213;-69
2022/06/15 01:25:34;;;;;;;1.90;1.80;;;22.30;59.80;;;;;;4972808;28;20676;-69
2022/06/15 01:28:23;;;;;;;2.13;2.00;;;22.30;59.80;;;;;;4957595;28;20193;-69
2022/06/15 01:30:58;;;;;;;1.85;1.70;;;22.30;59.80;;;;;;4973989;28;20192;-69
2022/06/15 01:33:59;;;;;;;2.25;1.92;;;22.30;59.80;;;;;;4972952;28;20213;-68
2022/06/15 01:36:40;;;;;;;2.75;2.30;;;22.30;59.80;;;;;;4973655;28;20189;-69
2022/06/15 01:39:41;;;;;;;2.13;1.92;;;22.30;59.80;;;;;;4958211;28;20296;-69
2022/06/15 01:42:14;;;;;;;1.92;1.83;;;22.30;60.60;;;;;;4902895;29;20191;-69
2022/06/15 01:44:46;;;;;;;2.20;2.00;;;22.30;59.80;;;;;;4947804;28;20276;-69
2022/06/15 01:47:18;;;;;;;2.03;1.92;;;22.30;59.80;;;;;;4974612;28;20182;-70
2022/06/15 01:50:02;;;;;;;2.35;2.20;;;22.30;59.80;;;;;;4958165;28;20212;-70
2022/06/15 01:52:35;;;;;;;2.33;2.13;;;22.30;59.80;;;;;;4973849;28;20216;-69
2022/06/15 01:55:14;;;;;;;2.15;2.00;;;22.30;59.80;;;;;;4957160;28;20185;-69
2022/06/15 01:57:44;;;;;;;1.95;1.80;;;22.30;59.80;;;;;;4957838;28;20177;-70
2022/06/15 02:00:17;;;;;;;2.22;2.10;;;22.30;59.80;;;;;;4993660;28;20240;-69
2022/06/15 02:03:05;;;;;;;1.98;1.88;;;22.30;59.90;;;;;;4978785;28;20177;-69
2022/06/15 02:06:02;;;;;;;2.20;2.00;;;22.30;59.90;;;;;;4976767;28;20177;-69
2022/06/15 02:09:04;;;;;;;2.58;2.13;;;22.30;59.80;;;;;;4976611;28;20209;-69
2022/06/15 02:11:34;;;;;;;2.38;1.92;;;22.30;59.90;;;;;;4960802;28;20262;-69
2022/06/15 02:14:11;;;;;;;1.98;1.88;;;22.30;59.90;;;;;;4976115;28;20188;-69
2022/06/15 02:17:02;;;;;;;1.88;1.77;;;22.30;59.90;;;;;;4961231;28;20170;-69
2022/06/15 02:19:47;;;;;;;2.00;1.88;;;22.30;59.90;;;;;;4976394;28;20206;-69
2022/06/15 02:22:25;;;;;;;2.80;2.28;;;22.30;59.90;;;;;;4976874;28;20669;-69
2022/06/15 02:24:58;;;;;;;1.92;1.83;;;22.30;59.90;;;;;;4975944;28;20178;-69
2022/06/15 02:27:29;;;;;;;2.53;2.33;;;22.30;59.80;;;;;;4976117;28;20213;-69
2022/06/15 02:30:10;;;;;;;1.90;1.80;;;22.30;59.90;;;;;;4959940;28;20209;-69
2022/06/15 02:32:38;;;;;;;2.53;2.33;;;22.30;59.90;;;;;;4959966;28;20216;-69
2022/06/15 02:35:05;;;;;;;1.92;1.83;;;22.30;59.90;;;;;;4959446;28;20186;-69
2022/06/15 02:37:31;;;;;;;1.92;1.83;;;22.30;59.90;;;;;;4992076;28;20185;-69
2022/06/15 02:39:57;;;;;;;2.25;2.05;;;22.30;59.90;;;;;;4995674;28;20201;-69
2022/06/15 02:42:40;;;;;;;2.00;1.90;;;22.30;59.90;;;;;;4995398;28;20212;-69
2022/06/15 02:45:26;;;;;;;2.08;1.88;;;22.30;59.90;;;;;;4994956;28;20181;-69
2022/06/15 02:47:55;;;;;;;2.15;2.05;;;22.30;59.90;;;;;;4995870;28;20280;-69
2022/06/15 02:50:29;;;;;;;2.30;1.90;;;22.30;59.90;;;;;;4980271;28;20256;-69
2022/06/15 02:53:19;;;;;;;2.50;2.30;;;22.30;60.00;;;;;;4995687;28;20217;-69
2022/06/15 02:55:47;;;;;;;1.95;1.80;;;22.30;59.90;;;;;;4995095;28;20237;-69
2022/06/15 02:58:37;;;;;;;2.22;2.08;;;22.30;59.90;;;;;;4995354;28;20731;-68
2022/06/15 03:01:04;;;;;;;2.00;1.80;;;22.30;59.90;;;;;;4980114;28;20176;-69
2022/06/15 03:03:33;;;;;;;1.85;1.70;;;22.30;59.90;;;;;;4995990;28;20185;-68
2022/06/15 03:06:27;;;;;;;2.28;1.90;;;22.20;59.80;;;;;;4996476;28;20204;-69
2022/06/15 03:08:57;;;;;;;2.13;1.92;;;22.30;60.00;;;;;;4980372;28;20200;-69
2022/06/15 03:11:40;;;;;;;2.40;2.20;;;22.20;59.80;;;;;;5012489;28;20180;-69
2022/06/15 03:14:16;;;;;;;2.85;2.40;;;22.30;59.90;;;;;;4980835;28;20191;-69
2022/06/15 03:16:47;;;;;;;2.58;2.20;;;22.30;60.00;;;;;;4996627;28;20207;-69
2022/06/15 03:19:13;;;;;;;2.08;1.98;;;22.30;60.00;;;;;;4996006;28;20700;-69
2022/06/15 03:21:41;;;;;;;2.15;2.05;;;22.20;59.90;;;;;;4995167;28;20265;-69
2022/06/15 03:24:07;;;;;;;2.20;2.00;;;22.30;59.90;;;;;;4994784;28;20204;-70
2022/06/15 03:26:34;;;;;;;2.13;2.03;;;22.20;59.90;;;;;;4995454;28;20165;-69
2022/06/15 03:29:01;;;;;;;2.20;1.80;;;22.20;59.90;;;;;;4995095;28;20201;-69
2022/06/15 03:31:30;;;;;;;2.05;1.90;;;22.20;59.90;;;;;;4994968;28;20691;-69
2022/06/15 03:33:57;;;;;;;2.22;2.03;;;22.20;59.90;;;;;;4994440;28;20276;-69
2022/06/15 03:36:24;;;;;;;2.03;1.92;;;22.20;59.90;;;;;;4995362;28;20192;-69
2022/06/15 03:38:52;;;;;;;2.22;2.13;;;22.20;59.90;;;;;;4994905;28;20201;-69
2022/06/15 03:41:28;;;;;;;3.20;1.90;;;22.20;59.90;;;;;;4994726;28;20176;-69
2022/06/15 03:43:55;;;;;;;1.92;1.83;;;22.20;59.90;;;;;;4994938;28;20185;-69
2022/06/15 03:46:25;;;;;;;2.28;2.08;;;22.20;60.00;;;;;;4994645;28;20311;-69
2022/06/15 03:48:53;;;;;;;2.17;2.00;;;22.20;60.00;;;;;;5009130;28;20207;-69
2022/06/15 03:51:20;;;;;;;2.63;2.22;;;22.20;59.90;;;;;;4997633;28;20172;-69
2022/06/15 03:53:57;;;;;;;2.08;1.98;;;22.30;60.10;;;;;;5013744;28;20187;-69
2022/06/15 03:56:38;;;;;;;3.15;2.20;;;22.20;60.00;;;;;;5014380;28;20187;-70
2022/06/15 03:59:09;;;;;;;1.83;1.73;;;22.20;60.00;;;;;;5015101;28;20289;-70
2022/06/15 04:01:35;;;;;;;2.20;2.00;;;22.20;59.90;;;;;;5015698;28;20273;-69
2022/06/15 04:04:02;;;;;;;1.90;1.80;;;22.20;59.90;;;;;;5031264;28;20203;-69
2022/06/15 04:06:30;;;;;;;2.05;1.95;;;22.20;59.90;;;;;;5014341;28;20180;-69
2022/06/15 04:08:55;;;;;;;1.98;1.88;;;22.20;60.00;;;;;;5031214;28;20208;-69
2022/06/15 04:14:21;;;;;;;2.28;2.08;;;22.20;60.00;;;;;;5013507;28;20195;-69
2022/06/15 04:16:53;;;;;;;2.15;1.95;;;22.20;60.00;;;;;;5014865;28;20188;-69
2022/06/15 04:19:29;;;;;;;2.60;2.40;;;22.20;60.00;;;;;;5014549;28;20231;-69
2022/06/15 04:21:57;;;;;;;2.33;2.13;;;22.20;60.80;;;;;;4997570;28;20259;-69
2022/06/15 04:24:29;;;;;;;2.58;2.38;;;22.20;60.00;;;;;;5013240;28;20532;-69
2022/06/15 04:26:58;;;;;;;2.40;2.20;;;22.20;60.00;;;;;;4998159;28;20200;-69
2022/06/15 04:29:27;;;;;;;2.28;2.05;;;22.20;60.00;;;;;;5013653;28;20263;-69
2022/06/15 04:31:54;;;;;;;2.40;2.20;;;22.20;60.10;;;;;;5014122;28;20215;-69
2022/06/15 04:34:20;;;;;;;2.30;2.10;;;22.20;60.10;;;;;;5013481;28;20188;-70
2022/06/15 04:36:47;;;;;;;1.77;1.67;;;22.20;60.10;;;;;;5031321;28;20236;-69
2022/06/15 04:39:14;;;;;;;1.98;1.83;;;22.20;60.10;;;;;;4999001;28;20239;-69
2022/06/15 04:41:44;;;;;;;2.05;1.95;;;22.10;60.00;;;;;;5014724;28;20188;-69
2022/06/15 04:44:11;;;;;;;1.90;1.80;;;22.10;60.00;;;;;;5012885;28;20185;-69
2022/06/15 04:46:40;;;;;;;2.03;1.92;;;22.20;60.10;;;;;;4993912;28;20191;-69
2022/06/15 04:49:08;;;;;;;2.10;2.00;;;22.20;60.10;;;;;;4994136;28;20205;-70
2022/06/15 04:51:42;;;;;;;2.10;1.90;;;22.20;60.10;;;;;;4978666;28;20180;-70
2022/06/15 04:54:10;;;;;;;2.17;1.98;;;22.20;60.10;;;;;;4993407;28;20661;-69
2022/06/15 04:56:39;;;;;;;2.20;2.00;;;22.20;60.90;;;;;;4993512;28;20224;-69
2022/06/15 04:59:09;;;;;;;2.33;2.13;;;22.20;60.10;;;;;;4993784;28;20228;-69
2022/06/15 05:01:37;;;;;;;2.40;2.20;;;22.20;60.10;;;;;;4994244;28;20181;-70
2022/06/15 05:04:04;;;;;;;3.17;2.45;;;22.20;60.10;;;;;;4993160;28;20782;-69
2022/06/15 05:06:42;;;;;;;2.38;2.13;;;22.20;60.10;;;;;;4992657;28;20255;-69
2022/06/15 05:09:14;;;;;;;2.50;2.30;;;22.20;60.10;;;;;;4992358;28;20205;-69
2022/06/15 05:11:43;;;;;;;2.13;2.00;;;22.10;60.10;;;;;;4992482;28;20239;-69
2022/06/15 05:14:11;;;;;;;2.35;2.05;;;22.20;60.20;;;;;;4976023;28;20695;-69
2022/06/15 05:16:41;;;;;;;2.15;2.05;;;22.10;60.10;;;;;;4992370;28;20216;-69
2022/06/15 05:19:12;;;;;;;2.45;2.13;;;22.10;60.10;;;;;;4992539;28;20566;-69
2022/06/15 05:21:41;;;;;;;2.33;2.13;;;22.10;60.00;;;;;;4976586;28;20191;-69
2022/06/15 05:24:09;;;;;;;2.00;1.90;;;22.20;60.10;;;;;;4992592;28;20181;-69
2022/06/15 05:26:47;;;;;;;2.50;2.30;;;22.20;60.10;;;;;;4978830;28;20173;-69
2022/06/15 05:29:13;;;;;;;2.28;1.98;;;22.10;60.10;;;;;;4992760;28;20335;-69
2022/06/15 05:31:38;;;;;;;2.25;2.05;;;22.20;60.20;;;;;;4977296;28;20188;-69
2022/06/15 05:34:06;;;;;;;2.47;2.28;;;22.20;60.20;;;;;;4992100;28;20199;-69
2022/06/15 05:36:37;;;;;;;2.25;2.05;;;22.20;60.20;;;;;;4993372;28;20224;-69
2022/06/15 05:39:05;;;;;;;2.42;2.17;;;22.10;60.10;;;;;;4993503;28;20608;-69
2022/06/15 05:41:34;;;;;;;2.55;2.35;;;22.20;60.30;;;;;;4992686;28;20748;-69
2022/06/15 05:46:57;;;;;;;1.90;1.80;;;22.10;60.20;;;;;;4973068;28;20279;-69
2022/06/15 05:49:34;;;;;;;1.70;1.60;;;22.20;60.20;;;;;;4993976;28;20255;-69
2022/06/15 05:52:02;;;;;;;2.00;1.90;;;22.10;60.20;;;;;;5005467;28;20231;-69
2022/06/15 05:54:30;;;;;;;1.88;1.77;;;22.20;60.30;;;;;;5012070;28;20262;-69
2022/06/15 05:56:56;;;;;;;1.90;1.80;;;22.20;60.20;;;;;;4996424;28;20231;-69
2022/06/15 05:59:22;;;;;;;1.83;1.73;;;22.20;60.20;;;;;;4996965;28;20211;-69
2022/06/15 06:01:48;;;;;;;2.08;1.90;;;22.20;60.20;;;;;;5012192;28;20184;-69
2022/06/15 06:04:19;;;;;;;2.25;2.05;;;22.20;60.20;;;;;;5005396;28;20210;-69
2022/06/15 06:06:48;;;;;;;2.15;1.95;;;22.20;60.20;;;;;;4993593;28;20199;-69
2022/06/15 06:09:14;;;;;;;2.00;1.90;;;22.20;60.20;;;;;;4991921;28;20216;-69
2022/06/15 06:11:40;;;;;;;2.20;2.10;;;22.20;60.20;;;;;;5008672;28;20203;-70
2022/06/15 06:14:06;;;;;;;2.20;2.00;;;22.20;60.20;;;;;;4992041;28;20189;-69
2022/06/15 06:16:32;;;;;;;2.65;1.75;;;22.20;60.20;;;;;;4976236;28;20197;-69
2022/06/15 06:18:57;;;;;;;2.05;1.83;;;22.20;60.20;;;;;;4984561;28;20281;-69
2022/06/15 06:21:23;;;;;;;2.15;1.98;;;22.30;60.40;;;;;;4972850;28;20724;-69
2022/06/15 06:23:49;;;;;;;2.10;1.90;;;22.30;60.40;;;;;;4972825;28;20186;-68
2022/06/15 06:26:29;;;;;;;2.10;1.90;;;22.30;60.40;;;;;;4988875;28;20193;-69
2022/06/15 06:28:56;;;;;;;1.95;1.85;;;22.30;60.40;;;;;;4991157;28;20232;-69
2022/06/15 06:31:23;;;;;;;2.40;2.25;;;22.30;60.40;;;;;;4973686;28;20194;-69
2022/06/15 06:33:50;;;;;;;2.00;1.90;;;22.30;60.40;;;;;;4972734;28;20701;-69
2022/06/15 06:36:31;;;;;;;2.20;2.10;;;22.20;60.30;;;;;;4985218;28;20192;-69
2022/06/15 06:38:59;;;;;;;1.80;1.70;;;22.30;60.40;;;;;;4991566;28;20263;-69
2022/06/15 06:41:27;;;;;;;2.20;2.00;;;22.30;60.50;;;;;;4991975;28;20663;-68
2022/06/15 06:43:55;;;;;;;1.85;1.75;;;22.30;60.50;;;;;;4991322;28;20185;-68
2022/06/15 06:46:22;;;;;;;2.03;1.92;;;22.30;60.50;;;;;;4976219;28;20198;-69
2022/06/15 06:48:48;;;;;;;1.85;1.75;;;22.30;60.60;;;;;;4978982;28;20218;-69
2022/06/15 06:51:15;;;;;;;1.90;1.80;;;22.30;60.70;;;;;;4960225;28;20201;-69
2022/06/15 06:53:41;;;;;;;1.73;1.58;;;22.30;60.60;;;;;;4960356;28;20213;-69
2022/06/15 06:56:10;;;;;;;2.25;2.13;;;22.30;60.60;;;;;;4977147;28;20186;-70
2022/06/15 06:58:36;;;;;;;2.10;2.00;;;22.30;60.80;;;;;;4978242;28;20208;-69
2022/06/15 07:01:02;;;;;;;2.50;2.20;;;22.30;60.80;;;;;;4977368;28;20177;-70
2022/06/15 07:03:28;;;;;;;2.22;2.03;;;22.30;60.80;;;;;;4991604;28;20209;-69
2022/06/15 07:06:07;;;;;;;2.13;1.92;;;22.30;60.80;;;;;;4978862;28;20239;-69
2022/06/15 07:08:33;;;;;;;1.92;1.83;;;22.30;60.90;;;;;;5007864;28;20213;-69
2022/06/15 07:11:00;;;;;;;1.77;1.67;;;22.30;61.00;;;;;;4996521;28;20207;-69
2022/06/15 07:13:26;;;;;;;2.00;1.90;;;22.30;61.00;;;;;;4980163;28;20220;-69
2022/06/15 07:15:52;;;;;;;1.98;1.88;;;22.30;61.00;;;;;;4995527;28;20620;-69
2022/06/15 07:18:18;;;;;;;2.05;1.95;;;22.30;61.00;;;;;;4996084;28;20185;-69
2022/06/15 07:20:44;;;;;;;1.90;1.80;;;22.30;61.00;;;;;;4979434;28;20197;-69
2022/06/15 07:23:11;;;;;;;1.90;1.80;;;22.30;61.10;;;;;;4995079;28;20203;-69
2022/06/15 07:25:37;;;;;;;2.05;1.95;;;22.30;61.10;;;;;;4978402;28;20181;-69
2022/06/15 07:28:03;;;;;;;2.05;1.90;;;22.40;61.30;;;;;;4995945;28;20188;-70
2022/06/15 07:30:30;;;;;;;2.08;1.92;;;22.40;61.30;;;;;;4979900;28;20189;-69
2022/06/15 07:32:56;;;;;;;2.03;1.92;;;22.40;61.20;;;;;;4979163;28;20252;-69
2022/06/15 07:35:33;;;;;;;1.95;1.80;;;22.30;61.10;;;;;;4979309;28;20185;-70
2022/06/15 07:37:59;;;;;;;2.40;2.20;;;22.40;61.20;;;;;;4979140;28;20173;-69
2022/06/15 07:40:26;;;;;;;2.22;2.03;;;22.40;61.20;;;;;;4994931;28;20277;-69
2022/06/15 07:42:55;;;;;;;2.10;1.98;;;22.40;61.40;;;;;;4995126;28;20189;-69
2022/06/15 07:45:24;;;;;;;1.90;1.80;;;22.40;61.40;;;;;;4994795;28;20192;-69
2022/06/15 07:50:36;;;;;;;2.10;1.90;;;22.40;61.30;;;;;;5014070;28;20241;-69
2022/06/15 07:53:06;;;;;;;2.35;2.15;;;22.50;61.30;;;;;;5014566;28;20208;-69
2022/06/15 07:55:36;;;;;;;2.80;2.20;;;22.40;61.20;;;;;;4997871;28;20191;-69
2022/06/15 07:58:03;;;;;;;2.28;2.08;;;22.50;61.30;;;;;;5017032;28;20184;-70
2022/06/15 08:00:31;;;;;;;1.95;1.85;;;22.40;61.10;;;;;;5018769;28;20636;-70
2022/06/15 08:02:58;;;;;;;2.75;2.10;;;22.40;61.20;;;;;;5019337;28;20188;-70
2022/06/15 08:05:27;;;;;;;2.20;2.00;;;22.50;61.40;;;;;;5017622;28;20238;-69
2022/06/15 08:07:54;;;;;;;2.60;2.22;;;22.40;61.30;;;;;;5017013;28;20281;-70
2022/06/15 08:10:25;;;;;;;2.20;2.00;;;22.50;61.50;;;;;;4999014;28;20212;-70
2022/06/15 08:12:52;;;;;;;1.90;1.80;;;22.50;61.40;;;;;;5014418;28;20208;-69
2022/06/15 08:15:18;;;;;;;2.10;1.90;;;22.50;61.30;;;;;;5029681;28;20203;-69
2022/06/15 08:17:54;;;;;;;1.80;1.70;;;22.50;61.70;;;;;;5013932;28;20202;-69
2022/06/15 08:20:53;;;;;;;1.70;1.60;;;22.50;62.00;;;;;;5013554;28;20214;-70
2022/06/15 08:23:23;;;;;;;2.47;2.28;;;22.50;62.10;;;;;;5014239;28;20207;-69
2022/06/15 08:25:55;;;;;;;2.10;2.00;;;22.50;62.00;;;;;;5013712;28;20184;-69
2022/06/15 08:28:26;;;;;;;2.20;2.00;;;22.50;62.20;;;;;;4996447;28;20208;-69
2022/06/15 08:30:53;;;;;;;2.08;1.88;;;22.50;62.30;;;;;;5012663;28;20176;-69
2022/06/15 08:33:19;;;;;;;2.00;1.80;;;22.50;62.30;;;;;;5012624;28;20295;-69
2022/06/15 08:35:47;;;;;;;2.10;1.70;;;22.50;62.30;;;;;;4991237;28;20256;-69
2022/06/15 08:38:16;;;;;;;2.10;1.90;;;22.50;62.30;;;;;;4957183;28;20185;-69
2022/06/15 08:40:57;;;;;;;3.70;1.80;;;22.50;62.40;;;;;;4957536;28;20210;-69
2022/06/15 08:44:18;;;;;;;4.05;2.17;;;22.60;62.50;;;;;;4957427;28;20182;-68
2022/06/15 08:47:06;;;;;;;6.25;2.05;;;22.60;62.40;;;;;;4982709;28;20665;-70
2022/06/15 08:50:15;;;;;;;2.33;2.10;;;22.60;62.40;;;;;;4993380;28;20208;-69
2022/06/15 08:52:51;;;;;;;2.90;2.00;;;22.60;62.40;;;;;;4984695;28;20300;-69
2022/06/15 08:55:32;;;;;;;2.38;2.17;;;22.60;62.30;;;;;;4989515;28;20281;-69
2022/06/15 08:58:14;;;;;;;3.58;2.08;;;22.60;62.30;;;;;;4976387;28;20208;-69
2022/06/15 09:00:43;;;;;;;2.30;2.10;;;22.60;62.20;;;;;;4993377;28;20187;-70
2022/06/15 09:03:28;;;;;;;2.13;1.85;;;22.60;62.20;;;;;;4992589;28;20196;-70
2022/06/15 09:06:12;;;;;;;3.28;2.13;;;22.60;62.10;;;;;;4991432;28;20181;-69
2022/06/15 09:09:05;;;;;;;2.72;2.20;;;22.70;62.30;;;;;;4992297;28;20220;-69
2022/06/15 09:15:32;;;;;;;2.58;2.15;;;22.70;62.50;;;;;;4976785;28;20205;-69
2022/06/15 09:18:07;;;;;;;2.47;2.05;;;22.70;62.50;;;;;;4976337;28;20181;-69
2022/06/15 09:20:43;;;;;;;3.40;2.00;;;22.70;62.40;;;;;;4976018;28;20192;-69
2022/06/15 09:23:26;;;;;;;2.70;2.30;;;22.80;62.40;;;;;;4976458;28;20180;-69
2022/06/15 09:26:14;;;;;;;3.45;2.20;;;22.70;62.20;;;;;;4974847;28;20224;-69
2022/06/15 09:28:47;;;;;;;2.28;2.05;;;22.70;62.30;;;;;;4991906;28;20200;-69
2022/06/15 09:31:27;;;;;;;3.47;2.08;;;22.70;62.50;;;;;;4975856;28;20192;-69
2022/06/15 09:34:01;;;;;;;2.90;2.28;;;22.70;62.60;;;;;;4993048;28;20220;-69
2022/06/15 09:36:34;;;;;;;5.32;1.90;;;22.70;62.60;;;;;;4975316;28;20183;-69
2022/06/15 09:39:00;;;;;;;2.65;2.00;;;22.70;62.80;;;;;;4990641;28;20579;-72
2022/06/15 09:41:45;;;;;;;3.42;2.00;;;22.70;63.00;;;;;;4995403;28;20184;-69
2022/06/15 09:44:33;;;;;;;3.92;2.60;;;22.80;62.60;;;;;;4991870;28;20177;-68
2022/06/15 09:47:24;;;;;;;2.85;2.38;;;22.80;62.70;;;;;;4992372;28;20172;-70
2022/06/15 09:50:08;;;;;;;3.05;2.22;;;22.70;62.60;;;;;;4991983;28;20560;-68
2022/06/15 09:52:56;;;;;;;2.92;2.20;;;22.70;62.60;;;;;;4974384;28;20208;-68
2022/06/15 09:55:46;;;;;;;4.22;2.30;;;22.70;62.70;;;;;;4991503;28;20228;-68
2022/06/15 09:58:17;;;;;;;2.33;2.13;;;22.70;63.00;;;;;;4992457;28;20189;-68
2022/06/15 10:00:45;;;;;;;4.25;2.13;;;22.70;63.00;;;;;;4991552;28;20188;-69
2022/06/15 10:03:33;;;;;;;2.90;2.28;;;22.70;63.00;;;;;;4991628;28;20185;-68
2022/06/15 10:06:28;;;;;;;2.65;2.13;;;22.80;63.00;;;;;;4991555;28;20243;-68
2022/06/15 10:08:57;;;;;;;2.63;2.30;;;22.80;63.20;;;;;;4976678;28;20219;-72
2022/06/15 10:11:48;;;;;;;2.90;1.95;;;22.70;63.10;;;;;;4993125;28;20192;-69
2022/06/15 10:14:23;;;;;;;4.43;2.58;;;22.80;63.20;;;;;;4974424;28;20181;-68
2022/06/15 10:17:01;;;;;;;4.95;2.08;;;22.80;63.40;;;;;;5001090;28;20187;-69
2022/06/15 10:19:31;;;;;;;2.38;2.13;;;22.70;63.40;;;;;;4996016;28;20212;-68
2022/06/15 10:22:03;;;;;;;2.25;2.05;;;22.80;63.20;;;;;;5031580;28;20184;-68
2022/06/15 10:24:40;;;;;;;2.67;2.40;;;22.80;63.20;;;;;;5014627;28;20169;-68
2022/06/15 10:27:32;;;;;;;2.35;2.15;;;22.80;63.30;;;;;;5015096;28;20172;-69
2022/06/15 10:30:07;;;;;;;2.20;2.00;;;22.80;63.10;;;;;;5015310;28;20204;-69
2022/06/15 10:32:35;;;;;;;2.22;2.03;;;22.80;63.40;;;;;;5014854;28;20211;-69
2022/06/15 10:35:10;;;;;;;2.30;2.00;;;22.80;63.30;;;;;;4997987;28;20183;-68
2022/06/15 10:37:46;;;;;;;2.80;2.28;;;22.80;63.40;;;;;;4998832;28;20215;-68
2022/06/15 10:40:26;;;;;;;2.55;2.35;;;22.80;63.60;;;;;;5014692;28;20218;-68
2022/06/15 10:43:00;;;;;;;3.17;2.10;;;22.80;63.20;;;;;;4998281;28;20226;-68
2022/06/15 10:45:35;;;;;;;2.05;1.92;;;22.80;63.20;;;;;;5008448;28;20180;-69
2022/06/15 10:48:18;;;;;;;3.97;2.05;;;22.80;63.40;;;;;;5018450;28;20656;-68
2022/06/15 10:50:57;;;;;;;3.58;2.20;;;22.80;63.20;;;;;;5003840;28;20190;-68
2022/06/15 10:53:37;;;;;;;2.80;2.50;;;22.80;63.50;;;;;;4998166;28;20231;-69
2022/06/15 11:02:19;;;;;;;2.50;2.22;;;22.80;63.60;;;;;;4975122;28;20197;-68
2022/06/15 11:04:48;;;;;;;2.55;2.08;;;22.80;63.50;;;;;;4975452;28;20178;-69
2022/06/15 11:07:33;;;;;;;2.50;2.30;;;22.80;63.60;;;;;;4975226;28;20193;-68
2022/06/15 11:10:13;;;;;;;3.15;2.22;;;22.80;63.60;;;;;;4971148;28;20225;-69
2022/06/15 11:12:47;;;;;;;2.97;2.17;;;22.80;63.50;;;;;;4974715;28;20213;-68
2022/06/15 11:15:13;;;;;;;2.42;2.20;;;22.90;63.70;;;;;;4974104;28;20191;-69
2022/06/15 11:18:01;;;;;;;3.67;2.35;;;22.80;63.90;;;;;;5001104;28;20193;-69
2022/06/15 11:20:47;;;;;;;2.38;2.17;;;22.90;63.90;;;;;;4997513;28;20184;-69
2022/06/15 11:23:49;;;;;;;2.97;2.47;;;22.90;64.00;;;;;;5014212;28;20192;-69
2022/06/15 11:26:54;;;;;;;2.47;2.20;;;22.90;64.00;;;;;;5013360;28;20184;-68
2022/06/15 11:29:54;;;;;;;2.67;2.15;;;22.90;64.00;;;;;;5027235;28;20274;-69
2022/06/15 11:32:45;;;;;;;2.33;2.03;;;22.90;63.70;;;;;;5013410;28;20294;-69
2022/06/15 11:35:14;;;;;;;2.55;2.30;;;22.90;63.50;;;;;;5013199;28;20160;-69
2022/06/15 11:37:59;;;;;;;2.70;2.00;;;22.90;64.40;;;;;;5013869;28;20782;-69
2022/06/15 11:40:52;;;;;;;2.40;2.20;;;22.90;63.70;;;;;;5013391;28;20722;-69
2022/06/15 11:43:41;;;;;;;2.55;2.30;;;22.90;63.60;;;;;;5013315;28;20200;-69
2022/06/15 11:46:59;;;;;;;2.58;2.35;;;22.90;63.20;;;;;;5027765;28;20231;-69
2022/06/15 11:49:36;;;;;;;2.25;2.15;;;22.90;63.20;;;;;;5003613;28;20216;-70
2022/06/15 11:52:32;;;;;;;2.95;2.03;;;22.90;63.10;;;;;;5012997;28;20188;-69
2022/06/15 11:55:27;;;;;;;2.38;2.13;;;22.90;63.40;;;;;;4996094;28;20184;-70
2022/06/15 11:58:05;;;;;;;2.30;2.10;;;22.90;63.40;;;;;;5014548;28;20214;-68
2022/06/15 12:01:00;;;;;;;2.78;2.10;;;22.90;63.30;;;;;;4996980;28;20647;-68
2022/06/15 12:04:13;;;;;;;3.65;2.08;;;22.90;63.40;;;;;;5013076;28;20176;-68
2022/06/15 12:06:50;;;;;;;3.53;2.10;;;22.90;63.40;;;;;;4952900;28;20194;-69
2022/06/15 12:09:51;;;;;;;2.95;2.00;;;22.90;63.50;;;;;;4936922;29;20740;-69
2022/06/15 12:12:39;;;;;;;2.83;2.00;;;22.90;63.50;;;;;;4985454;28;20231;-68
2022/06/15 12:15:38;;;;;;;3.15;2.13;;;22.90;63.40;;;;;;5028160;28;20184;-69
2022/06/15 12:19:13;;;;;;;2.35;2.15;;;22.90;63.10;;;;;;4992863;28;20189;-69
2022/06/15 12:21:58;;;;;;;2.92;1.85;;;22.90;63.00;;;;;;4975238;28;20207;-69
2022/06/15 12:24:44;;;;;;;1.88;1.77;;;22.90;63.00;;;;;;4991485;28;20193;-69
2022/06/15 12:27:50;;;;;;;2.85;1.83;;;22.90;62.80;;;;;;5007674;28;20204;-69
2022/06/15 12:30:27;;;;;;;2.83;1.90;;;22.90;62.90;;;;;;4992162;28;20205;-70
2022/06/15 12:33:34;;;;;;;4.18;2.30;;;22.90;62.60;;;;;;4992112;28;20216;-69
2022/06/15 12:36:31;;;;;;;2.20;1.83;;;22.90;63.00;;;;;;4974788;28;20220;-69
2022/06/15 12:39:29;;;;;;;1.98;1.88;;;22.90;63.30;;;;;;4975460;28;20312;-69
2022/06/15 12:42:09;;;;;;;2.95;1.70;;;22.90;63.40;;;;;;4992025;28;20192;-69
2022/06/15 12:44:55;;;;;;;2.95;1.92;;;22.90;63.40;;;;;;4991531;28;20196;-68
2022/06/15 12:47:25;;;;;;;2.22;2.05;;;22.90;62.60;;;;;;5000060;28;20189;-69
2022/06/15 12:50:18;;;;;;;2.47;2.28;;;22.90;62.80;;;;;;5010139;28;20200;-69
2022/06/15 12:53:21;;;;;;;1.95;1.85;;;22.90;62.80;;;;;;4992697;28;20604;-71
2022/06/15 12:56:32;;;;;;;1.80;1.70;;;22.90;63.60;;;;;;4972202;28;20209;-69
2022/06/15 12:59:31;;;;;;;2.05;1.80;;;22.90;63.40;;;;;;4972259;28;20205;-69
2022/06/15 13:02:34;;;;;;;3.30;1.92;;;22.90;63.00;;;;;;4972534;28;20277;-69
2022/06/15 13:05:19;;;;;;;2.42;1.85;;;22.90;63.90;;;;;;4997542;28;20176;-68
2022/06/15 13:08:11;;;;;;;2.85;1.98;;;22.90;63.00;;;;;;4995003;28;20176;-69
2022/06/15 13:10:53;;;;;;;2.15;1.83;;;22.90;62.60;;;;;;5011305;28;20192;-69
2022/06/15 13:13:44;;;;;;;2.10;1.90;;;23.00;62.60;;;;;;4994870;28;20219;-68
2022/06/15 13:16:29;;;;;;;2.55;2.00;;;23.00;62.80;;;;;;5004325;28;20275;-69
2022/06/15 13:18:57;;;;;;;2.58;1.70;;;22.90;63.00;;;;;;5010234;28;20298;-69
2022/06/15 13:21:55;;;;;;;2.17;1.75;;;22.90;62.80;;;;;;5011276;28;20652;-68
2022/06/15 13:24:22;;;;;;;4.97;1.88;;;22.90;62.80;;;;;;5005863;28;20234;-70
2022/06/15 13:26:54;;;;;;;2.47;2.03;;;22.90;63.00;;;;;;4994177;28;20192;-70
2022/06/15 13:29:31;;;;;;;2.13;1.92;;;23.00;63.30;;;;;;5010976;28;20242;-71
2022/06/15 13:32:05;;;;;;;2.28;1.80;;;22.90;63.50;;;;;;4994532;28;20198;-70
2022/06/15 13:34:34;;;;;;;3.30;2.10;;;22.90;63.00;;;;;;5012253;28;20290;-70
2022/06/15 13:37:25;;;;;;;2.13;1.60;;;23.00;63.60;;;;;;4994662;28;20188;-70
2022/06/15 13:40:07;;;;;;;3.08;1.83;;;23.00;63.20;;;;;;5010986;28;20223;-70
2022/06/15 13:42:45;;;;;;;4.55;2.20;;;23.00;62.60;;;;;;4992855;28;20195;-70
2022/06/15 13:45:18;;;;;;;2.38;2.10;;;23.00;63.30;;;;;;5010125;28;20654;-70
2022/06/15 13:48:37;;;;;;;2.53;2.00;;;23.00;63.70;;;;;;5000832;28;20224;-69
2022/06/15 13:51:30;;;;;;;2.92;1.88;;;23.00;64.10;;;;;;5004228;28;20204;-70
2022/06/15 13:54:16;;;;;;;2.33;1.85;;;23.00;63.90;;;;;;5027644;28;20306;-70
2022/06/15 13:57:23;;;;;;;3.58;1.90;;;23.00;63.00;;;;;;5015516;28;20190;-70